Time;durP1;ratioP1;P1;durP2;ratioP2;P2;SDS_P1;SDS_P2;PMS_P1;PMS_P2;Temp;Humidity;BMP_temperature;BMP_pressure;BME280_temperature;BME280_humidity;BME280_pressure;Samples;Min_cycle;Max_cycle;Signal;HPM_P1;HPM_P2
2021/01/14 00:00:12;;;;;;;;;;;5.30;95.30;;;;;;5012608;28;19910;-87
2021/01/14 00:02:38;;;;;;;;;;;5.30;95.30;;;;;;5009489;28;19913;-87
2021/01/14 00:05:07;;;;;;;;;;;5.40;95.30;;;;;;5015229;28;19917;-88
2021/01/14 00:07:32;;;;;;;;;;;5.30;95.30;;;;;;5014922;28;20004;-87
2021/01/14 00:09:58;;;;;;;;;;;5.30;95.30;;;;;;5029400;28;20007;-87
2021/01/14 00:12:23;;;;;;;;;;;5.30;95.30;;;;;;5021157;28;19920;-88
2021/01/14 00:14:49;;;;;;;;;;;5.30;95.30;;;;;;4993354;28;20343;-87
2021/01/14 00:17:14;;;;;;;;;;;5.30;95.30;;;;;;4983712;28;19923;-87
2021/01/14 00:19:40;;;;;;;;;;;5.30;95.30;;;;;;5015455;28;19913;-89
2021/01/14 00:22:05;;;;;;;;;;;5.30;95.30;;;;;;4995549;28;19917;-87
2021/01/14 00:24:31;;;;;;;;;;;5.30;95.30;;;;;;4987544;28;19914;-88
2021/01/14 00:26:56;;;;;;;;;;;5.30;95.30;;;;;;5014804;28;20379;-87
2021/01/14 00:29:22;;;;;;;;;;;5.30;95.30;;;;;;5015079;28;20248;-87
2021/01/14 00:31:47;;;;;;;;;;;5.20;95.30;;;;;;5032552;28;19999;-88
2021/01/14 00:34:14;;;;;;;;;;;5.20;95.30;;;;;;5015154;28;19916;-87
2021/01/14 00:39:25;;;;;;;;;;;5.20;95.30;;;;;;5013095;28;19959;-88
2021/01/14 00:41:52;;;;;;;;;;;5.20;95.30;;;;;;4992828;28;19913;-89
2021/01/14 00:44:18;;;;;;;;;;;5.20;95.30;;;;;;5028793;28;20366;-87
2021/01/14 00:46:43;;;;;;;;;;;5.20;95.30;;;;;;5003176;28;20383;-87
2021/01/14 00:49:09;;;;;;;;;;;5.10;95.30;;;;;;4996857;28;19920;-89
2021/01/14 00:51:35;;;;;;;;;;;5.10;95.30;;;;;;4995294;28;19922;-88
2021/01/14 00:54:00;;;;;;;;;;;5.10;95.20;;;;;;5012293;28;20394;-87
2021/01/14 00:56:36;;;;;;;;;;;5.10;95.20;;;;;;5010070;28;19913;-87
2021/01/14 00:59:02;;;;;;;;;;;5.10;95.20;;;;;;5017294;28;19913;-87
2021/01/14 01:01:28;;;;;;;;;;;5.00;95.20;;;;;;5004016;28;19929;-88
2021/01/14 01:03:54;;;;;;;;;;;5.10;95.20;;;;;;5018593;28;19913;-88
2021/01/14 01:06:20;;;;;;;;;;;5.10;95.20;;;;;;5004294;28;20429;-87
2021/01/14 01:08:46;;;;;;;;;;;5.10;95.20;;;;;;5018384;28;19920;-88
2021/01/14 01:11:12;;;;;;;;;;;5.00;95.20;;;;;;5018331;28;19956;-88
2021/01/14 01:13:37;;;;;;;;;;;5.00;95.20;;;;;;5018627;28;19921;-87
2021/01/14 01:16:03;;;;;;;;;;;4.90;95.10;;;;;;5018176;28;20433;-87
2021/01/14 01:18:28;;;;;;;;;;;4.90;95.10;;;;;;5032027;28;19964;-87
2021/01/14 01:20:54;;;;;;;;;;;4.90;95.10;;;;;;4998956;28;19910;-86
2021/01/14 01:23:19;;;;;;;;;;;4.90;95.10;;;;;;5010578;28;20402;-87
2021/01/14 01:25:45;;;;;;;;;;;4.90;95.10;;;;;;5021519;28;19917;-87
2021/01/14 01:28:10;;;;;;;;;;;4.90;95.10;;;;;;5014652;28;19940;-87
2021/01/14 01:30:36;;;;;;;;;;;4.80;95.10;;;;;;5011799;28;19913;-87
2021/01/14 01:33:01;;;;;;;;;;;4.80;95.10;;;;;;5017707;28;20491;-87
2021/01/14 01:35:27;;;;;;;;;;;4.80;95.10;;;;;;5000501;28;19917;-87
2021/01/14 01:37:52;;;;;;;;;;;4.70;95.00;;;;;;5035297;28;19913;-87
2021/01/14 01:40:18;;;;;;;;;;;4.70;95.00;;;;;;5017681;28;19913;-87
2021/01/14 01:42:43;;;;;;;;;;;4.70;95.10;;;;;;5005340;28;20268;-88
2021/01/14 01:45:09;;;;;;;;;;;4.70;95.10;;;;;;4996019;28;20364;-89
2021/01/14 01:47:36;;;;;;;;;;;4.70;95.10;;;;;;4998074;28;20770;-88
2021/01/14 01:50:05;;;;;;;;;;;4.60;95.10;;;;;;4994902;28;19914;-88
2021/01/14 01:52:32;;;;;;;;;;;4.70;95.10;;;;;;5015432;28;19909;-89
2021/01/14 01:54:57;;;;;;;;;;;4.60;95.10;;;;;;4996647;28;19917;-87
2021/01/14 01:57:23;;;;;;;;;;;4.70;95.10;;;;;;5027092;28;20447;-88
2021/01/14 01:59:48;;;;;;;;;;;4.60;95.10;;;;;;5017823;28;20265;-88
2021/01/14 02:02:25;;;;;;;;;;;4.60;95.10;;;;;;5018470;28;20397;-88
2021/01/14 02:04:51;;;;;;;;;;;4.60;95.10;;;;;;5035337;28;19943;-86
2021/01/14 02:07:35;;;;;;;;;;;4.60;95.10;;;;;;5034667;28;19913;-87
2021/01/14 02:10:03;;;;;;;;;;;4.60;95.10;;;;;;5034605;28;19963;-85
2021/01/14 02:12:32;;;;;;;;;;;4.60;95.10;;;;;;5012747;28;20409;-85
2021/01/14 02:14:58;;;;;;;;;;;4.50;95.10;;;;;;5007885;28;20335;-86
2021/01/14 02:17:25;;;;;;;;;;;4.60;95.10;;;;;;5000543;28;19935;-86
2021/01/14 02:19:52;;;;;;;;;;;4.60;95.10;;;;;;5017345;28;19910;-86
2021/01/14 02:22:23;;;;;;;;;;;4.50;95.10;;;;;;5016919;28;19931;-86
2021/01/14 02:25:03;;;;;;;;;;;4.50;95.10;;;;;;5016742;28;19913;-86
2021/01/14 02:27:30;;;;;;;;;;;4.50;95.10;;;;;;5017042;28;19948;-88
2021/01/14 02:29:57;;;;;;;;;;;4.50;95.10;;;;;;5008721;28;19917;-86
2021/01/14 02:32:23;;;;;;;;;;;4.50;95.10;;;;;;5028742;28;19915;-87
2021/01/14 02:34:49;;;;;;;;;;;4.50;95.10;;;;;;5000633;28;20418;-86
2021/01/14 02:37:14;;;;;;;;;;;4.50;95.10;;;;;;4988294;28;19925;-87
2021/01/14 02:39:40;;;;;;;;;;;4.40;95.10;;;;;;4997074;28;19967;-88
2021/01/14 02:42:05;;;;;;;;;;;4.40;95.00;;;;;;5022847;28;19909;-87
2021/01/14 02:44:31;;;;;;;;;;;4.40;95.00;;;;;;5020196;28;19920;-87
2021/01/14 02:46:57;;;;;;;;;;;4.40;95.10;;;;;;5034500;28;19940;-87
2021/01/14 02:49:25;;;;;;;;;;;4.40;95.10;;;;;;5033913;28;19913;-87
2021/01/14 02:51:53;;;;;;;;;;;4.40;95.10;;;;;;4997281;28;19910;-87
2021/01/14 02:54:19;;;;;;;;;;;4.40;95.10;;;;;;5015845;28;19913;-87
2021/01/14 02:56:47;;;;;;;;;;;4.40;95.10;;;;;;5000071;28;19932;-87
2021/01/14 02:59:13;;;;;;;;;;;4.40;95.10;;;;;;5015898;28;20473;-87
2021/01/14 03:01:38;;;;;;;;;;;4.40;95.10;;;;;;5017224;28;19929;-87
2021/01/14 03:04:04;;;;;;;;;;;4.40;95.10;;;;;;5046065;28;19909;-87
2021/01/14 03:06:29;;;;;;;;;;;4.30;95.10;;;;;;5035674;28;20374;-87
2021/01/14 03:08:55;;;;;;;;;;;4.30;95.10;;;;;;5030447;28;20024;-87
2021/01/14 03:11:28;;;;;;;;;;;4.30;95.10;;;;;;5019360;28;19948;-88
2021/01/14 03:13:53;;;;;;;;;;;4.30;95.10;;;;;;5053413;28;19931;-87
2021/01/14 03:16:19;;;;;;;;;;;4.30;95.10;;;;;;5035873;28;19913;-87
2021/01/14 03:18:44;;;;;;;;;;;4.30;95.10;;;;;;5035396;28;20348;-87
2021/01/14 03:21:10;;;;;;;;;;;4.30;95.00;;;;;;5015954;28;19917;-87
2021/01/14 03:23:35;;;;;;;;;;;4.30;95.00;;;;;;5018915;28;19913;-87
2021/01/14 03:26:01;;;;;;;;;;;4.30;95.00;;;;;;5019055;28;20062;-87
2021/01/14 03:28:26;;;;;;;;;;;4.20;94.90;;;;;;5029575;28;19921;-87
2021/01/14 03:30:53;;;;;;;;;;;4.30;95.00;;;;;;5005321;28;19979;-87
2021/01/14 03:33:19;;;;;;;;;;;4.20;95.00;;;;;;5019033;28;19936;-87
2021/01/14 03:35:45;;;;;;;;;;;4.20;95.00;;;;;;5053551;28;20362;-87
2021/01/14 03:38:10;;;;;;;;;;;4.20;95.00;;;;;;5035678;28;19913;-88
2021/01/14 03:40:36;;;;;;;;;;;4.10;95.00;;;;;;5050792;28;20414;-87
2021/01/14 03:43:01;;;;;;;;;;;4.10;94.90;;;;;;5024105;28;19936;-87
2021/01/14 03:45:27;;;;;;;;;;;4.10;95.20;;;;;;5031949;28;19963;-88
2021/01/14 03:47:52;;;;;;;;;;;4.10;94.90;;;;;;5024372;28;20282;-88
2021/01/14 03:50:18;;;;;;;;;;;4.10;94.90;;;;;;5023165;28;19913;-88
2021/01/14 03:52:43;;;;;;;;;;;4.10;94.90;;;;;;5034494;28;19923;-88
2021/01/14 03:55:09;;;;;;;;;;;4.10;94.90;;;;;;5022024;28;19917;-87
2021/01/14 03:57:36;;;;;;;;;;;4.00;94.90;;;;;;5020457;28;19956;-87
2021/01/14 04:00:05;;;;;;;;;;;4.10;95.00;;;;;;5014269;28;19920;-88
2021/01/14 04:02:31;;;;;;;;;;;4.00;95.00;;;;;;5049885;28;19962;-87
2021/01/14 04:04:57;;;;;;;;;;;4.00;94.90;;;;;;5034317;28;19921;-87
2021/01/14 04:07:22;;;;;;;;;;;4.00;94.90;;;;;;5014730;28;19924;-87
2021/01/14 04:09:48;;;;;;;;;;;4.00;94.90;;;;;;5016435;28;19913;-88
2021/01/14 04:12:13;;;;;;;;;;;4.00;94.70;;;;;;5045525;28;19908;-87
2021/01/14 04:14:39;;;;;;;;;;;3.90;94.80;;;;;;5033619;28;19952;-88
2021/01/14 04:17:04;;;;;;;;;;;4.00;94.80;;;;;;5033906;28;19920;-87
2021/01/14 04:19:30;;;;;;;;;;;3.90;94.80;;;;;;5017651;28;19917;-87
2021/01/14 04:21:55;;;;;;;;;;;3.90;94.80;;;;;;5030250;28;19917;-88
2021/01/14 04:24:21;;;;;;;;;;;3.80;94.80;;;;;;5008346;28;19913;-87
2021/01/14 04:26:47;;;;;;;;;;;3.80;94.80;;;;;;5034111;28;19917;-88
2021/01/14 04:29:13;;;;;;;;;;;3.90;94.90;;;;;;5034511;28;20384;-87
2021/01/14 04:31:39;;;;;;;;;;;3.80;94.80;;;;;;5015982;28;20011;-88
2021/01/14 04:34:05;;;;;;;;;;;3.80;94.80;;;;;;5007759;28;19920;-87
2021/01/14 04:36:31;;;;;;;;;;;3.80;94.80;;;;;;5021520;28;20283;-88
2021/01/14 04:38:56;;;;;;;;;;;3.80;94.80;;;;;;5035440;28;19915;-87
2021/01/14 04:41:22;;;;;;;;;;;3.80;94.70;;;;;;5028409;28;19909;-87
2021/01/14 04:43:48;;;;;;;;;;;3.80;94.80;;;;;;5037702;28;19955;-87
2021/01/14 04:46:14;;;;;;;;;;;3.70;94.80;;;;;;5055834;28;20007;-87
2021/01/14 04:48:41;;;;;;;;;;;3.70;94.80;;;;;;5038032;28;20008;-88
2021/01/14 04:51:08;;;;;;;;;;;3.70;94.80;;;;;;5040950;28;20003;-87
2021/01/14 04:53:35;;;;;;;;;;;3.70;94.80;;;;;;5059656;28;19909;-88
2021/01/14 04:56:02;;;;;;;;;;;3.70;94.80;;;;;;5059051;28;19915;-87
2021/01/14 04:58:28;;;;;;;;;;;3.70;94.80;;;;;;5046674;28;20669;-88
2021/01/14 05:00:56;;;;;;;;;;;3.70;94.80;;;;;;5045777;28;20382;-88
2021/01/14 05:03:22;;;;;;;;;;;3.60;94.70;;;;;;5039047;28;19917;-87
2021/01/14 05:05:48;;;;;;;;;;;3.60;94.70;;;;;;5042534;28;19913;-87
2021/01/14 05:08:15;;;;;;;;;;;3.60;94.70;;;;;;5018862;28;19994;-87
2021/01/14 05:10:42;;;;;;;;;;;3.60;94.70;;;;;;5033949;28;19909;-88
2021/01/14 05:13:08;;;;;;;;;;;3.50;94.70;;;;;;5054378;28;19909;-87
2021/01/14 05:15:35;;;;;;;;;;;3.60;94.80;;;;;;5054395;28;19917;-89
2021/01/14 05:18:00;;;;;;;;;;;3.50;94.80;;;;;;5018102;28;19909;-87
2021/01/14 05:20:26;;;;;;;;;;;3.50;94.80;;;;;;5008203;28;19917;-87
2021/01/14 05:22:59;;;;;;;;;;;3.50;94.80;;;;;;5055362;28;19936;-88
2021/01/14 05:25:25;;;;;;;;;;;3.50;94.90;;;;;;5037485;28;20353;-89
2021/01/14 05:27:51;;;;;;;;;;;3.50;94.90;;;;;;5055625;28;19919;-88
2021/01/14 05:30:17;;;;;;;;;;;3.50;94.90;;;;;;5021390;28;20004;-88
2021/01/14 05:32:44;;;;;;;;;;;3.50;94.90;;;;;;5017632;28;19913;-88
2021/01/14 05:35:11;;;;;;;;;;;3.50;95.20;;;;;;5036752;28;19916;-88
2021/01/14 05:37:41;;;;;;;;;;;3.50;94.90;;;;;;5032000;28;19964;-88
2021/01/14 05:40:12;;;;;;;;;;;3.50;95.00;;;;;;5035585;28;19915;-88
2021/01/14 05:42:38;;;;;;;;;;;3.50;95.00;;;;;;5024191;28;20315;-88
2021/01/14 05:45:05;;;;;;;;;;;3.50;95.00;;;;;;5034698;28;19917;-88
2021/01/14 05:47:30;;;;;;;;;;;3.50;95.00;;;;;;5020401;28;19959;-87
2021/01/14 05:50:00;;;;;;;;;;;3.50;95.00;;;;;;5040522;28;19957;-88
2021/01/14 05:52:27;;;;;;;;;;;3.50;95.00;;;;;;5054620;28;20435;-87
2021/01/14 05:54:57;;;;;;;;;;;3.50;95.00;;;;;;5053618;28;20011;-87
2021/01/14 05:57:27;;;;;;;;;;;3.50;95.00;;;;;;5024357;28;19935;-88
2021/01/14 05:59:54;;;;;;;;;;;3.50;95.00;;;;;;5053384;28;19909;-87
2021/01/14 06:02:27;;;;;;;;;;;3.50;95.00;;;;;;5016804;28;19917;-88
2021/01/14 06:04:52;;;;;;;;;;;3.50;95.00;;;;;;5039617;28;19971;-89
2021/01/14 06:07:18;;;;;;;;;;;3.50;95.00;;;;;;5043587;28;19952;-88
2021/01/14 06:09:48;;;;;;;;;;;3.50;95.00;;;;;;5020007;28;19962;-89
2021/01/14 06:12:14;;;;;;;;;;;3.50;95.00;;;;;;5020304;28;20359;-89
2021/01/14 06:14:40;;;;;;;;;;;3.50;95.00;;;;;;5054061;28;19913;-89
2021/01/14 06:17:07;;;;;;;;;;;3.50;95.10;;;;;;5035990;28;19924;-89
2021/01/14 06:19:32;;;;;;;;;;;3.50;95.10;;;;;;5033474;28;19920;-90
2021/01/14 06:21:59;;;;;;;;;;;3.50;95.00;;;;;;5048455;28;19913;-89
2021/01/14 06:24:35;;;;;;;;;;;3.50;95.00;;;;;;5027567;28;19921;-89
2021/01/14 06:27:04;;;;;;;;;;;3.50;95.00;;;;;;5033089;28;19924;-90
2021/01/14 06:29:30;;;;;;;;;;;3.50;95.10;;;;;;5036418;28;19912;-88
2021/01/14 06:32:12;;;;;;;;;;;3.40;95.00;;;;;;5044544;28;19920;-88
2021/01/14 06:34:57;;;;;;;;;;;3.40;95.00;;;;;;5032101;28;20308;-88
2021/01/14 06:37:27;;;;;;;;;;;3.50;95.10;;;;;;5014743;28;19971;-89
2021/01/14 06:39:54;;;;;;;;;;;3.50;95.10;;;;;;5024394;28;19924;-88
2021/01/14 06:42:28;;;;;;;;;;;3.50;95.10;;;;;;5045160;28;19915;-89
2021/01/14 06:44:58;;;;;;;;;;;3.50;95.10;;;;;;5035342;28;19916;-87
2021/01/14 06:47:32;;;;;;;;;;;3.40;95.10;;;;;;5024389;28;19917;-88
2021/01/14 06:50:21;;;;;;;;;;;3.40;95.10;;;;;;5051435;28;19916;-88
2021/01/14 06:52:46;;;;;;;;;;;3.40;95.10;;;;;;5019947;28;19916;-88
2021/01/14 06:55:33;;;;;;;;;;;3.40;95.10;;;;;;5032229;28;20371;-88
2021/01/14 06:58:08;;;;;;;;;;;3.40;95.10;;;;;;5047994;28;19962;-89
2021/01/14 07:00:39;;;;;;;;;;;3.50;95.10;;;;;;5032525;28;19964;-88
2021/01/14 07:03:18;;;;;;;;;;;3.40;95.10;;;;;;5033189;28;19995;-89
2021/01/14 07:05:56;;;;;;;;;;;3.40;95.10;;;;;;5029855;28;20354;-89
2021/01/14 07:08:34;;;;;;;;;;;3.50;95.20;;;;;;5034537;28;19916;-87
2021/01/14 07:11:02;;;;;;;;;;;3.40;95.10;;;;;;5034950;28;19909;-88
2021/01/14 07:13:29;;;;;;;;;;;3.50;95.20;;;;;;5053510;28;19909;-89
2021/01/14 07:15:57;;;;;;;;;;;3.40;95.20;;;;;;5031883;28;20020;-87
2021/01/14 07:18:26;;;;;;;;;;;3.40;95.20;;;;;;5029269;28;19919;-87
2021/01/14 07:20:52;;;;;;;;;;;3.40;95.20;;;;;;5020837;28;20418;-88
2021/01/14 07:23:19;;;;;;;;;;;3.40;95.20;;;;;;5024007;28;20016;-88
2021/01/14 07:25:44;;;;;;;;;;;3.40;95.20;;;;;;5034838;28;19917;-87
2021/01/14 07:28:10;;;;;;;;;;;3.40;95.20;;;;;;5033543;28;19921;-87
2021/01/14 07:30:35;;;;;;;;;;;3.40;95.20;;;;;;5017253;28;20286;-87
2021/01/14 07:33:05;;;;;;;;;;;3.40;95.20;;;;;;5016379;28;20286;-87
2021/01/14 07:35:47;;;;;;;;;;;3.40;95.20;;;;;;5028997;28;19909;-88
2021/01/14 07:38:14;;;;;;;;;;;3.40;95.20;;;;;;5029513;28;19948;-87
2021/01/14 07:40:40;;;;;;;;;;;3.40;95.20;;;;;;5027767;28;20556;-86
2021/01/14 07:43:07;;;;;;;;;;;3.40;95.20;;;;;;5045708;28;20355;-87
2021/01/14 07:45:33;;;;;;;;;;;3.40;95.20;;;;;;5042231;28;19920;-87
2021/01/14 07:48:17;;;;;;;;;;;3.40;95.20;;;;;;5032248;28;19917;-87
2021/01/14 07:50:50;;;;;;;;;;;3.40;95.20;;;;;;5035569;28;19909;-87
2021/01/14 07:53:16;;;;;;;;;;;3.50;95.30;;;;;;5035234;28;20016;-85
2021/01/14 07:55:42;;;;;;;;;;;3.40;95.20;;;;;;5044380;28;19913;-86
2021/01/14 07:58:23;;;;;;;;;;;3.40;95.30;;;;;;5050882;28;20437;-87
2021/01/14 08:00:59;;;;;;;;;;;3.40;95.30;;;;;;5034521;28;20383;-87
2021/01/14 08:03:28;;;;;;;;;;;3.40;95.30;;;;;;5018491;28;20419;-86
2021/01/14 08:05:56;;;;;;;;;;;3.40;95.30;;;;;;5018539;28;19920;-88
2021/01/14 08:08:26;;;;;;;;;;;3.40;95.30;;;;;;5028488;28;20608;-86
2021/01/14 08:11:19;;;;;;;;;;;3.40;95.30;;;;;;5006774;28;19917;-87
2021/01/14 08:14:04;;;;;;;;;;;3.40;95.30;;;;;;5033203;28;19917;-85
2021/01/14 08:16:38;;;;;;;;;;;3.40;95.30;;;;;;5037290;28;19909;-85
2021/01/14 08:19:19;;;;;;;;;;;3.40;95.30;;;;;;5032827;28;19916;-85
2021/01/14 08:21:45;;;;;;;;;;;3.40;95.30;;;;;;5027297;28;20366;-85
2021/01/14 08:24:11;;;;;;;;;;;3.40;95.30;;;;;;5035925;28;20358;-85
2021/01/14 08:26:58;;;;;;;;;;;3.40;95.30;;;;;;5034574;28;19916;-85
2021/01/14 08:29:44;;;;;;;;;;;3.40;95.30;;;;;;5034787;28;19956;-85
2021/01/14 08:32:24;;;;;;;;;;;3.40;95.30;;;;;;5040381;28;19909;-84
2021/01/14 08:34:50;;;;;;;;;;;3.40;95.30;;;;;;5030522;28;19920;-84
2021/01/14 08:37:26;;;;;;;;;;;3.40;95.20;;;;;;5020342;28;19913;-89
2021/01/14 08:39:52;;;;;;;;;;;3.40;95.20;;;;;;5050991;28;20385;-86
2021/01/14 08:42:28;;;;;;;;;;;3.40;95.20;;;;;;5039170;28;19920;-87
2021/01/14 08:44:54;;;;;;;;;;;3.40;95.20;;;;;;5024989;28;19908;-86
2021/01/14 08:47:19;;;;;;;;;;;3.40;95.20;;;;;;5017416;28;20007;-87
2021/01/14 08:49:46;;;;;;;;;;;3.40;95.10;;;;;;5034152;28;20319;-86
2021/01/14 08:52:13;;;;;;;;;;;3.30;95.10;;;;;;5033199;28;20700;-86
2021/01/14 08:54:42;;;;;;;;;;;3.30;95.10;;;;;;5050904;28;20328;-85
2021/01/14 08:57:07;;;;;;;;;;;3.40;95.10;;;;;;5016692;28;19934;-86
2021/01/14 08:59:33;;;;;;;;;;;3.40;95.10;;;;;;5019493;28;20370;-89
2021/01/14 09:01:58;;;;;;;;;;;3.40;95.10;;;;;;5032840;28;20361;-86
2021/01/14 09:04:25;;;;;;;;;;;3.30;95.00;;;;;;4992950;28;19914;-86
2021/01/14 09:06:51;;;;;;;;;;;3.30;95.00;;;;;;5016283;28;20004;-86
2021/01/14 09:09:16;;;;;;;;;;;3.30;94.90;;;;;;4991101;28;20027;-90
2021/01/14 09:11:42;;;;;;;;;;;3.40;94.90;;;;;;4995713;28;20290;-85
2021/01/14 09:14:10;;;;;;;;;;;3.40;94.80;;;;;;5022724;28;20437;-85
2021/01/14 09:16:37;;;;;;;;;;;3.40;94.80;;;;;;5008993;28;20374;-85
2021/01/14 09:19:12;;;;;;;;;;;3.40;94.80;;;;;;5011878;28;19936;-85
2021/01/14 09:21:38;;;;;;;;;;;3.40;94.90;;;;;;4997897;28;19914;-85
2021/01/14 09:24:08;;;;;;;;;;;3.40;95.00;;;;;;5016992;28;20389;-85
2021/01/14 09:26:34;;;;;;;;;;;3.40;95.00;;;;;;5019716;28;19963;-87
2021/01/14 09:28:59;;;;;;;;;;;3.50;94.90;;;;;;4997623;28;20363;-85
2021/01/14 09:31:28;;;;;;;;;;;3.40;94.70;;;;;;5007724;28;19918;-84
2021/01/14 09:33:56;;;;;;;;;;;3.50;94.50;;;;;;5004342;28;19909;-86
2021/01/14 09:36:24;;;;;;;;;;;3.40;94.20;;;;;;5010027;28;19936;-84
2021/01/14 09:38:51;;;;;;;;;;;3.50;94.10;;;;;;5013915;28;19963;-85
2021/01/14 09:41:24;;;;;;;;;;;3.40;94.10;;;;;;5013872;28;20287;-86
2021/01/14 09:44:16;;;;;;;;;;;3.40;94.10;;;;;;5026377;28;19909;-86
2021/01/14 09:46:45;;;;;;;;;;;3.40;94.10;;;;;;5006450;28;19913;-86
2021/01/14 09:49:14;;;;;;;;;;;3.40;94.10;;;;;;5031119;28;19961;-86
2021/01/14 09:51:40;;;;;;;;;;;3.40;94.10;;;;;;5017345;28;19932;-86
2021/01/14 09:54:09;;;;;;;;;;;3.40;94.10;;;;;;5016915;28;20008;-86
2021/01/14 09:56:47;;;;;;;;;;;3.40;94.00;;;;;;5017485;28;19961;-85
2021/01/14 09:59:12;;;;;;;;;;;3.40;93.90;;;;;;5016886;28;19913;-85
2021/01/14 10:01:57;;;;;;;;;;;3.40;93.70;;;;;;5033430;28;20325;-85
2021/01/14 10:04:25;;;;;;;;;;;3.40;93.70;;;;;;5011719;28;19917;-85
2021/01/14 10:06:55;;;;;;;;;;;3.40;93.70;;;;;;5016316;28;19920;-86
2021/01/14 10:09:21;;;;;;;;;;;3.40;93.40;;;;;;5016366;28;19913;-85
2021/01/14 10:11:47;;;;;;;;;;;3.40;93.30;;;;;;4997168;28;19984;-84
2021/01/14 10:14:22;;;;;;;;;;;3.40;93.50;;;;;;5020570;28;19910;-85
2021/01/14 10:16:48;;;;;;;;;;;3.40;93.40;;;;;;5002336;28;20000;-88
2021/01/14 10:19:22;;;;;;;;;;;3.40;93.20;;;;;;5009233;28;19963;-85
2021/01/14 10:21:49;;;;;;;;;;;3.40;93.20;;;;;;5000395;28;19936;-87
2021/01/14 10:24:22;;;;;;;;;;;3.40;93.20;;;;;;4996729;28;19913;-84
2021/01/14 10:26:47;;;;;;;;;;;3.40;93.10;;;;;;5031506;28;19982;-83
2021/01/14 10:29:32;;;;;;;;;;;3.40;93.20;;;;;;5014911;28;20363;-86
2021/01/14 10:32:03;;;;;;;;;;;3.50;93.20;;;;;;5011422;28;19956;-84
2021/01/14 10:34:41;;;;;;;;;;;3.50;93.10;;;;;;5032522;28;19952;-85
2021/01/14 10:37:16;;;;;;;;;;;3.50;92.90;;;;;;5016160;28;19913;-85
2021/01/14 10:39:41;;;;;;;;;;;3.50;93.00;;;;;;5016353;28;19917;-85
2021/01/14 10:42:26;;;;;;;;;;;3.50;93.00;;;;;;5004691;28;19923;-86
2021/01/14 10:44:53;;;;;;;;;;;3.50;92.90;;;;;;5028391;28;19964;-85
2021/01/14 10:47:20;;;;;;;;;;;3.60;92.90;;;;;;5018063;28;19913;-83
2021/01/14 10:49:45;;;;;;;;;;;3.60;92.80;;;;;;5008137;28;20479;-83
2021/01/14 10:52:11;;;;;;;;;;;3.60;92.60;;;;;;5015472;28;19917;-84
2021/01/14 10:54:36;;;;;;;;;;;3.60;92.60;;;;;;4997258;28;19963;-84
2021/01/14 10:57:02;;;;;;;;;;;3.60;92.30;;;;;;5015769;28;19968;-92
2021/01/14 10:59:27;;;;;;;;;;;3.60;92.20;;;;;;5015271;28;19913;-87
2021/01/14 11:02:03;;;;;;;;;;;3.60;92.20;;;;;;5016763;28;20389;-87
2021/01/14 11:04:29;;;;;;;;;;;3.60;92.00;;;;;;5052840;28;19916;-86
2021/01/14 11:06:54;;;;;;;;;;;3.60;92.10;;;;;;5053776;28;19917;-84
2021/01/14 11:09:20;;;;;;;;;;;3.60;92.00;;;;;;5040755;28;19944;-85
2021/01/14 11:11:45;;;;;;;;;;;3.60;92.00;;;;;;5032550;28;20003;-85
2021/01/14 11:14:14;;;;;;;;;;;3.60;92.00;;;;;;5031634;28;19917;-84
2021/01/14 11:16:40;;;;;;;;;;;3.60;92.10;;;;;;5038029;28;19928;-85
2021/01/14 11:19:06;;;;;;;;;;;3.60;92.10;;;;;;5027395;28;20390;-85
2021/01/14 11:21:33;;;;;;;;;;;3.70;92.20;;;;;;5028820;28;19984;-87
2021/01/14 11:23:59;;;;;;;;;;;3.70;92.20;;;;;;5030072;28;20004;-83
2021/01/14 11:26:24;;;;;;;;;;;3.60;92.00;;;;;;5035336;28;19913;-85
2021/01/14 11:28:50;;;;;;;;;;;3.70;91.80;;;;;;5034921;28;19913;-86
2021/01/14 11:31:26;;;;;;;;;;;3.70;91.90;;;;;;5052832;28;19996;-85
2021/01/14 11:33:52;;;;;;;;;;;3.70;91.80;;;;;;5035134;28;19920;-84
2021/01/14 11:36:20;;;;;;;;;;;3.70;91.40;;;;;;5030855;28;19912;-85
2021/01/14 11:38:46;;;;;;;;;;;3.70;91.60;;;;;;5020891;28;19917;-84
2021/01/14 11:41:15;;;;;;;;;;;3.80;91.50;;;;;;5020882;28;19918;-84
2021/01/14 11:43:41;;;;;;;;;;;3.80;91.50;;;;;;5040568;28;19978;-81
2021/01/14 11:46:06;;;;;;;;;;;3.80;91.20;;;;;;5033203;28;20346;-89
2021/01/14 11:48:32;;;;;;;;;;;3.80;91.30;;;;;;5037125;28;19916;-84
2021/01/14 11:50:57;;;;;;;;;;;3.80;91.30;;;;;;5035470;28;19913;-85
2021/01/14 11:53:23;;;;;;;;;;;3.80;91.20;;;;;;5011243;28;19962;-84
2021/01/14 11:55:48;;;;;;;;;;;3.90;91.10;;;;;;5018170;28;19913;-86
2021/01/14 11:58:14;;;;;;;;;;;3.90;91.00;;;;;;5029619;28;19920;-85
2021/01/14 12:00:39;;;;;;;;;;;3.90;91.00;;;;;;5010369;28;19929;-84
2021/01/14 12:03:06;;;;;;;;;;;3.90;90.80;;;;;;5037717;28;20378;-86
2021/01/14 12:05:32;;;;;;;;;;;3.90;90.70;;;;;;5020583;28;19921;-86
2021/01/14 12:07:58;;;;;;;;;;;3.90;90.70;;;;;;5028415;28;19913;-84
2021/01/14 12:10:23;;;;;;;;;;;3.90;90.70;;;;;;5017527;28;19923;-84
2021/01/14 12:12:49;;;;;;;;;;;4.00;90.80;;;;;;5028428;28;19914;-84
2021/01/14 12:15:15;;;;;;;;;;;4.00;90.90;;;;;;5047754;28;19974;-83
2021/01/14 12:17:40;;;;;;;;;;;4.00;90.70;;;;;;5044481;28;19908;-85
2021/01/14 12:20:06;;;;;;;;;;;4.00;90.60;;;;;;5029176;28;19924;-84
2021/01/14 12:22:34;;;;;;;;;;;4.00;90.50;;;;;;5036811;28;19916;-84
2021/01/14 12:24:59;;;;;;;;;;;4.10;90.20;;;;;;5030723;28;19909;-84
2021/01/14 12:27:25;;;;;;;;;;;4.10;90.50;;;;;;5019121;28;19920;-84
2021/01/14 12:29:50;;;;;;;;;;;4.10;90.70;;;;;;5038185;28;20819;-84
2021/01/14 12:32:16;;;;;;;;;;;4.20;90.90;;;;;;5017872;28;19916;-84
2021/01/14 12:34:42;;;;;;;;;;;4.10;90.70;;;;;;5035456;28;20315;-83
2021/01/14 12:37:08;;;;;;;;;;;4.20;90.50;;;;;;5036640;28;19940;-84
2021/01/14 12:39:33;;;;;;;;;;;4.20;90.40;;;;;;5022854;28;19951;-85
2021/01/14 12:41:58;;;;;;;;;;;4.20;90.50;;;;;;5042183;28;19913;-84
2021/01/14 12:44:24;;;;;;;;;;;4.30;90.60;;;;;;5026826;28;19921;-84
2021/01/14 12:46:50;;;;;;;;;;;4.20;90.40;;;;;;5036957;28;19921;-85
2021/01/14 12:49:16;;;;;;;;;;;4.30;90.70;;;;;;5036784;28;19932;-84
2021/01/14 12:51:42;;;;;;;;;;;4.40;90.80;;;;;;5039359;28;19916;-85
2021/01/14 12:54:08;;;;;;;;;;;4.30;90.80;;;;;;5055700;28;19909;-84
2021/01/14 12:56:33;;;;;;;;;;;4.40;90.70;;;;;;5038397;28;20374;-85
2021/01/14 12:59:02;;;;;;;;;;;4.40;90.80;;;;;;5020555;28;19925;-87
2021/01/14 13:01:32;;;;;;;;;;;4.40;90.60;;;;;;5014887;28;20019;-84
2021/01/14 13:03:58;;;;;;;;;;;4.40;90.80;;;;;;5020208;28;19966;-84
2021/01/14 13:06:31;;;;;;;;;;;4.40;90.50;;;;;;5016844;28;19917;-84
2021/01/14 13:08:57;;;;;;;;;;;4.40;90.50;;;;;;5001858;28;19967;-85
2021/01/14 13:11:23;;;;;;;;;;;4.50;90.40;;;;;;5003714;28;20011;-84
2021/01/14 13:13:49;;;;;;;;;;;4.40;90.20;;;;;;5003627;28;20012;-90
2021/01/14 13:16:14;;;;;;;;;;;4.40;90.40;;;;;;4999040;28;19912;-83
2021/01/14 13:18:40;;;;;;;;;;;4.50;90.30;;;;;;5003088;28;20374;-83
2021/01/14 13:21:06;;;;;;;;;;;4.50;89.80;;;;;;5018545;28;19932;-83
2021/01/14 13:23:31;;;;;;;;;;;4.50;89.50;;;;;;5019488;28;19913;-86
2021/01/14 13:25:57;;;;;;;;;;;4.50;89.40;;;;;;5016946;28;19913;-84
2021/01/14 13:28:22;;;;;;;;;;;4.50;89.70;;;;;;5000310;28;20363;-88
2021/01/14 13:30:48;;;;;;;;;;;4.40;89.30;;;;;;5018239;28;20024;-83
2021/01/14 13:33:14;;;;;;;;;;;4.40;89.40;;;;;;4996992;28;19920;-89
2021/01/14 13:35:39;;;;;;;;;;;4.40;88.30;;;;;;5007730;28;19964;-84
2021/01/14 13:38:05;;;;;;;;;;;4.40;87.90;;;;;;5016320;28;19989;-84
2021/01/14 13:40:31;;;;;;;;;;;4.30;88.00;;;;;;5016776;28;19919;-84
2021/01/14 13:42:56;;;;;;;;;;;4.40;88.00;;;;;;4999624;28;19913;-85
2021/01/14 13:45:22;;;;;;;;;;;4.30;87.40;;;;;;5015442;28;19963;-84
2021/01/14 13:47:47;;;;;;;;;;;4.30;87.30;;;;;;5024706;28;20294;-85
2021/01/14 13:50:13;;;;;;;;;;;4.30;87.70;;;;;;5001069;28;19914;-84
2021/01/14 13:52:38;;;;;;;;;;;4.30;86.70;;;;;;5031471;28;19909;-86
2021/01/14 13:55:04;;;;;;;;;;;4.30;86.00;;;;;;5019254;28;20374;-87
2021/01/14 13:57:30;;;;;;;;;;;4.20;85.80;;;;;;5026354;28;20422;-86
2021/01/14 13:59:56;;;;;;;;;;;4.20;86.50;;;;;;4998602;28;19913;-86
2021/01/14 14:02:21;;;;;;;;;;;4.20;87.20;;;;;;5015754;28;19928;-85
2021/01/14 14:04:47;;;;;;;;;;;4.20;87.30;;;;;;4998496;28;19917;-85
2021/01/14 14:07:12;;;;;;;;;;;4.20;87.30;;;;;;5003519;28;20367;-84
2021/01/14 14:09:38;;;;;;;;;;;4.20;87.00;;;;;;4996489;28;19909;-85
2021/01/14 14:12:04;;;;;;;;;;;4.20;87.60;;;;;;5002283;28;20445;-85
2021/01/14 14:14:30;;;;;;;;;;;4.20;87.40;;;;;;5016048;28;19917;-84
2021/01/14 14:16:55;;;;;;;;;;;4.20;87.80;;;;;;5000906;28;19975;-86
2021/01/14 14:19:21;;;;;;;;;;;4.20;87.90;;;;;;5010282;28;19999;-91
2021/01/14 14:21:52;;;;;;;;;;;4.30;88.40;;;;;;5008964;28;20282;-86
2021/01/14 14:24:18;;;;;;;;;;;4.30;88.50;;;;;;5014805;28;19913;-86
2021/01/14 14:26:44;;;;;;;;;;;4.30;88.10;;;;;;5006525;28;19932;-86
2021/01/14 14:29:09;;;;;;;;;;;4.30;87.50;;;;;;5001832;28;19925;-85
2021/01/14 14:31:38;;;;;;;;;;;4.30;87.80;;;;;;5028588;28;20393;-85
2021/01/14 14:34:07;;;;;;;;;;;4.30;87.90;;;;;;5004810;28;20259;-86
2021/01/14 14:36:33;;;;;;;;;;;4.40;88.10;;;;;;5017338;28;19916;-86